Time;durP1;ratioP1;P1;durP2;ratioP2;P2;SDS_P1;SDS_P2;PMS_P1;PMS_P2;Temp;Humidity;BMP_temperature;BMP_pressure;BME280_temperature;BME280_humidity;BME280_pressure;Samples;Min_cycle;Max_cycle;Signal;HPM_P1;HPM_P2
2022/04/21 00:00:23;;;;;;;8.30;6.20;;;8.00;95.40;;;7.88;66.19;100868.88;4789954;29;20189;-70
2022/04/21 00:02:52;;;;;;;6.93;5.22;;;7.90;95.40;;;7.92;66.51;100870.19;4830092;24;20233;-69
2022/04/21 00:05:22;;;;;;;7.63;6.68;;;7.90;96.00;;;7.95;66.36;100885.13;4827738;29;20214;-69
2022/04/21 00:07:57;;;;;;;12.63;5.95;;;7.90;96.00;;;7.85;67.02;100886.25;4827190;29;20264;-69
2022/04/21 00:10:28;;;;;;;10.05;6.68;;;7.90;97.30;;;7.96;66.59;100881.41;4827347;29;20201;-70
2022/04/21 00:13:03;;;;;;;7.35;5.43;;;7.90;97.40;;;7.86;67.04;100887.06;4809053;29;20228;-69
2022/04/21 00:15:32;;;;;;;7.78;5.18;;;7.90;97.60;;;7.83;67.03;100879.38;4808831;29;20224;-69
2022/04/21 00:18:01;;;;;;;12.68;6.57;;;7.80;98.30;;;7.94;66.92;100870.00;4808416;29;20218;-68
2022/04/21 00:20:30;;;;;;;11.20;6.65;;;7.90;98.60;;;8.09;66.57;100881.59;4808286;29;20193;-69
2022/04/21 00:25:46;;;;;;;10.70;5.57;;;8.10;97.60;;;8.08;66.43;100880.78;4810115;29;20603;-69
2022/04/21 00:28:16;;;;;;;8.02;5.72;;;8.10;96.20;;;8.03;66.46;100877.81;4809537;29;20224;-69
2022/04/21 00:30:45;;;;;;;7.18;6.13;;;8.10;96.60;;;7.95;67.06;100877.88;4810050;29;20206;-69
2022/04/21 00:33:14;;;;;;;8.43;5.88;;;8.00;97.80;;;7.78;67.69;100868.31;4810201;29;20375;-69
2022/04/21 00:35:43;;;;;;;12.57;5.93;;;7.90;99.10;;;7.86;67.48;100876.31;4809231;29;20280;-70
2022/04/21 00:38:12;;;;;;;9.60;5.90;;;7.80;99.90;;;7.83;67.65;100871.28;4823145;29;20194;-70
2022/04/21 00:40:41;;;;;;;15.38;6.68;;;7.80;99.90;;;7.80;67.72;100867.09;4809966;29;20196;-69
2022/04/21 00:43:11;;;;;;;14.25;6.40;;;7.80;99.90;;;7.82;67.68;100875.00;4809264;29;20220;-70
2022/04/21 00:45:41;;;;;;;9.63;6.07;;;7.80;99.90;;;7.74;67.92;100878.63;4809446;29;20190;-69
2022/04/21 00:48:10;;;;;;;13.23;5.40;;;7.80;99.90;;;7.82;67.70;100870.44;4808321;29;20176;-69
2022/04/21 00:50:40;;;;;;;8.50;6.25;;;7.80;99.90;;;7.74;68.12;100864.31;4809340;29;20220;-70
2022/04/21 00:53:09;;;;;;;9.25;6.20;;;7.70;99.90;;;7.56;68.84;100861.13;4808981;29;20220;-69
2022/04/21 00:55:40;;;;;;;9.18;5.80;;;7.60;99.90;;;7.66;68.57;100851.75;4809372;29;20201;-69
2022/04/21 00:58:09;;;;;;;11.13;6.57;;;7.70;99.90;;;7.62;68.83;100857.69;4809186;29;20254;-69
2022/04/21 01:00:38;;;;;;;15.40;6.80;;;7.60;99.90;;;7.67;68.38;100857.97;4809017;29;20651;-70
2022/04/21 01:03:08;;;;;;;9.85;5.82;;;7.70;99.90;;;7.69;68.23;100864.03;4808837;29;20247;-69
2022/04/21 01:05:36;;;;;;;11.18;6.47;;;7.70;99.90;;;7.57;68.64;100860.94;4808953;29;20197;-69
2022/04/21 01:08:08;;;;;;;9.02;5.82;;;7.60;99.90;;;7.51;69.06;100861.66;4808694;29;20197;-69
2022/04/21 01:10:39;;;;;;;9.07;7.25;;;7.60;99.90;;;7.55;69.16;100852.19;4808935;29;20236;-68
2022/04/21 01:13:10;;;;;;;9.68;6.45;;;7.50;99.90;;;7.61;68.94;100853.31;4808772;29;20297;-68
2022/04/21 01:15:41;;;;;;;13.57;5.70;;;7.60;99.90;;;7.62;68.82;100845.06;4808767;29;20211;-67
2022/04/21 01:18:11;;;;;;;7.90;6.40;;;7.60;99.90;;;7.66;69.03;100840.16;4808556;29;20186;-67
2022/04/21 01:20:41;;;;;;;15.10;6.25;;;7.60;99.90;;;7.54;69.39;100838.94;4807116;29;20220;-67
2022/04/21 01:23:10;;;;;;;8.57;5.32;;;7.60;99.90;;;7.58;69.39;100830.31;4808180;29;20217;-68
2022/04/21 01:25:40;;;;;;;8.20;6.18;;;7.60;99.90;;;7.54;69.37;100830.84;4807714;29;20243;-68
2022/04/21 01:28:11;;;;;;;13.05;6.30;;;7.60;99.90;;;7.51;69.58;100831.22;4822142;29;20663;-69
2022/04/21 01:30:40;;;;;;;12.32;6.55;;;7.50;99.90;;;7.52;69.51;100843.66;4807776;29;20243;-68
2022/04/21 01:33:09;;;;;;;10.10;4.35;;;7.50;99.90;;;7.41;69.92;100844.94;4808221;29;20213;-68
2022/04/21 01:35:38;;;;;;;14.15;6.10;;;7.40;99.90;;;7.29;70.58;100852.63;4809294;29;20185;-68
2022/04/21 01:41:10;;;;;;;5.85;4.93;;;7.40;99.90;;;7.43;70.44;100853.69;4808775;29;20178;-68
2022/04/21 01:43:40;;;;;;;10.07;5.65;;;7.40;99.90;;;7.41;70.42;100844.94;4807776;29;20192;-69
2022/04/21 01:46:10;;;;;;;15.10;6.65;;;7.40;99.90;;;7.43;70.68;100842.91;4807911;29;20277;-67
2022/04/21 01:48:39;;;;;;;11.27;5.57;;;7.40;99.90;;;7.49;70.32;100836.81;4807452;29;20194;-68
2022/04/21 01:51:07;;;;;;;11.18;5.30;;;7.40;99.90;;;7.39;70.82;100847.84;4807495;29;20231;-69
2022/04/21 01:53:37;;;;;;;9.23;6.15;;;7.40;99.90;;;7.53;70.23;100848.03;4807258;29;20735;-69
2022/04/21 01:56:06;;;;;;;10.93;6.45;;;7.50;99.90;;;7.59;69.92;100848.16;4807876;29;20727;-69
2022/04/21 01:58:35;;;;;;;10.02;6.03;;;7.60;99.90;;;7.57;70.03;100835.88;4807854;29;20599;-69
2022/04/21 02:01:04;;;;;;;10.65;6.32;;;7.60;99.90;;;7.56;70.09;100831.50;4805861;29;20781;-69
2022/04/21 02:03:33;;;;;;;16.23;5.50;;;7.60;99.90;;;7.43;70.78;100824.91;4806907;29;20561;-69
2022/04/21 02:06:02;;;;;;;12.70;6.13;;;7.50;99.90;;;7.62;70.04;100833.47;4807219;29;20617;-69
2022/04/21 02:08:31;;;;;;;10.93;6.10;;;7.60;99.90;;;7.65;70.19;100822.34;4807450;29;20204;-69
2022/04/21 02:11:01;;;;;;;12.18;6.63;;;7.60;99.90;;;7.57;70.54;100825.09;4806532;29;20221;-68
2022/04/21 02:13:30;;;;;;;11.00;6.00;;;7.60;99.90;;;7.55;70.92;100824.47;4807104;29;20323;-69
2022/04/21 02:15:58;;;;;;;8.77;5.43;;;7.60;99.90;;;7.48;71.26;100839.66;4807037;29;20635;-69
2022/04/21 02:18:27;;;;;;;12.32;6.45;;;7.50;99.90;;;7.48;71.49;100823.50;4807182;29;20204;-69
2022/04/21 02:20:56;;;;;;;13.13;6.32;;;7.50;99.90;;;7.41;71.48;100834.16;4806767;29;20201;-70
2022/04/21 02:23:25;;;;;;;15.93;6.20;;;7.40;99.90;;;7.48;71.52;100834.28;4807434;29;20676;-69
2022/04/21 02:25:54;;;;;;;8.95;5.45;;;7.50;99.90;;;7.42;71.73;100825.91;4807403;29;20295;-70
2022/04/21 02:28:25;;;;;;;8.73;6.13;;;7.40;99.90;;;7.45;71.72;100815.81;4807189;29;20197;-70
2022/04/21 02:30:53;;;;;;;16.30;6.38;;;7.50;99.90;;;7.39;71.67;100810.16;4807343;29;20206;-70
2022/04/21 02:33:22;;;;;;;9.07;5.47;;;7.40;99.90;;;7.31;71.77;100810.19;4807441;29;20223;-70
2022/04/21 02:35:51;;;;;;;9.38;6.30;;;7.40;99.90;;;7.46;71.37;100804.00;4807341;29;20198;-69
2022/04/21 02:38:20;;;;;;;9.70;6.53;;;7.40;99.90;;;7.36;71.92;100807.78;4807590;29;20186;-70
2022/04/21 02:40:48;;;;;;;10.80;6.03;;;7.40;99.90;;;7.24;72.23;100806.59;4807530;29;20208;-69
2022/04/21 02:43:17;;;;;;;10.52;5.88;;;7.30;99.90;;;7.37;71.92;100806.78;4807182;29;20266;-69
2022/04/21 02:45:47;;;;;;;13.52;6.90;;;7.30;99.90;;;7.31;71.87;100801.31;4807340;29;20266;-68
2022/04/21 02:48:16;;;;;;;9.27;5.82;;;7.30;99.90;;;7.29;71.78;100796.09;4807927;29;20278;-69
2022/04/21 02:50:48;;;;;;;18.15;7.00;;;7.30;99.90;;;7.22;72.71;100805.91;4806565;29;20212;-70
2022/04/21 02:58:55;;;;;;;9.75;5.95;;;7.40;99.90;;;7.46;71.96;100795.91;4806609;29;20284;-69
2022/04/21 03:01:25;;;;;;;8.38;5.72;;;7.40;99.90;;;7.47;71.69;100803.81;4806395;29;20225;-68
2022/04/21 03:03:54;;;;;;;11.30;5.88;;;7.50;99.90;;;7.29;72.04;100814.09;4805129;29;20205;-70
2022/04/21 03:06:23;;;;;;;12.55;6.80;;;7.30;99.90;;;7.31;72.52;100802.13;4807115;29;20178;-68
2022/04/21 03:08:51;;;;;;;10.57;6.60;;;7.30;99.90;;;7.39;72.11;100804.75;4806912;29;20533;-68
2022/04/21 03:11:20;;;;;;;13.70;6.95;;;7.30;99.90;;;7.29;72.10;100809.56;4807459;29;20225;-70
2022/04/21 03:13:48;;;;;;;7.90;6.43;;;7.40;99.90;;;7.30;72.19;100794.25;4810113;29;20570;-69
2022/04/21 03:16:17;;;;;;;18.00;7.13;;;7.30;99.90;;;7.26;72.51;100798.34;4809990;29;20194;-69
2022/04/21 03:18:47;;;;;;;11.45;6.50;;;7.30;99.90;;;7.29;72.55;100801.50;4810453;29;20244;-69
2022/04/21 03:24:21;;;;;;;11.82;6.70;;;7.40;99.90;;;7.39;72.26;100810.16;4810403;29;20186;-70
2022/04/21 03:26:51;;;;;;;15.57;7.28;;;7.40;99.90;;;7.42;72.24;100793.59;4810738;29;20223;-69
2022/04/21 03:29:21;;;;;;;11.85;6.90;;;7.40;99.90;;;7.37;72.18;100795.19;4810067;29;20209;-69
2022/04/21 03:31:50;;;;;;;14.30;7.38;;;7.40;99.90;;;7.26;72.72;100793.75;4810532;29;20217;-69
2022/04/21 03:34:21;;;;;;;10.15;6.38;;;7.30;99.90;;;7.28;72.92;100807.88;4811101;29;20186;-69
2022/04/21 03:36:50;;;;;;;11.90;6.43;;;7.30;99.90;;;7.28;72.92;100807.03;4810173;29;20715;-69
2022/04/21 03:39:21;;;;;;;12.10;6.70;;;7.30;99.90;;;7.15;73.43;100802.28;4810599;29;20214;-69
2022/04/21 03:41:53;;;;;;;11.02;6.15;;;7.20;99.90;;;7.06;73.99;100808.78;4810137;29;20297;-70
2022/04/21 03:44:22;;;;;;;8.73;6.00;;;7.10;99.90;;;7.14;73.52;100806.00;4823968;29;20221;-69
2022/04/21 03:46:57;;;;;;;10.73;6.50;;;7.10;99.90;;;7.18;73.67;100810.00;4810470;29;20263;-69
2022/04/21 03:49:29;;;;;;;14.73;6.38;;;7.20;99.90;;;7.19;73.90;100811.69;4810042;29;20197;-69
2022/04/21 03:51:59;;;;;;;11.15;6.82;;;7.20;99.90;;;7.21;73.27;100812.31;4809357;29;20274;-68
2022/04/21 03:54:27;;;;;;;10.10;6.70;;;7.20;99.90;;;7.09;73.73;100812.94;4810483;29;20252;-69
2022/04/21 03:56:56;;;;;;;10.20;6.65;;;7.10;99.90;;;7.16;73.94;100820.13;4810128;29;20209;-69
2022/04/21 03:59:25;;;;;;;17.13;9.45;;;7.10;99.90;;;7.27;73.47;100822.34;4809527;29;20185;-69
2022/04/21 04:01:54;;;;;;;10.45;7.32;;;7.20;99.90;;;7.27;73.43;100814.28;4809681;29;20221;-69
2022/04/21 04:04:22;;;;;;;12.07;6.70;;;7.30;99.90;;;7.14;73.87;100814.06;4810740;29;20174;-70
2022/04/21 04:12:30;;;;;;;14.38;7.65;;;7.20;99.90;;;7.25;73.90;100829.78;4808561;29;20794;-69
2022/04/21 04:14:59;;;;;;;11.75;6.80;;;7.20;99.90;;;7.29;73.85;100830.25;4824380;29;20739;-69
2022/04/21 04:17:32;;;;;;;11.75;7.20;;;7.20;99.90;;;7.10;74.35;100820.84;4810297;29;20208;-69
2022/04/21 04:20:01;;;;;;;11.25;6.93;;;7.10;99.90;;;7.23;73.97;100826.44;4810834;29;20476;-70
2022/04/21 04:22:36;;;;;;;10.48;6.55;;;7.20;99.90;;;7.17;73.93;100829.84;4810430;29;20606;-70
2022/04/21 04:25:05;;;;;;;10.05;7.05;;;7.20;99.90;;;7.25;73.63;100831.66;4809392;29;20185;-70
2022/04/21 04:27:36;;;;;;;9.68;6.80;;;7.20;99.90;;;7.29;73.55;100831.09;4810132;29;20200;-69
2022/04/21 04:30:07;;;;;;;11.23;6.50;;;7.30;99.90;;;7.24;74.05;100836.19;4809779;29;20209;-70
2022/04/21 04:32:36;;;;;;;15.25;7.70;;;7.30;99.90;;;7.13;74.31;100830.41;4808999;29;20230;-70
2022/04/21 04:35:06;;;;;;;10.15;7.38;;;7.20;99.90;;;7.15;74.27;100823.00;4809184;29;20559;-69
2022/04/21 04:37:36;;;;;;;13.68;8.32;;;7.20;99.90;;;7.09;74.76;100819.16;4808751;29;20236;-70
2022/04/21 04:40:07;;;;;;;11.07;7.55;;;7.10;99.90;;;7.17;74.78;100829.84;4808646;29;20194;-68
2022/04/21 04:42:34;;;;;;;17.20;7.15;;;7.20;99.90;;;7.25;74.82;100828.97;4808547;29;20213;-70
2022/04/21 04:47:50;;;;;;;13.98;8.45;;;7.20;99.90;;;7.13;75.42;100835.78;4808357;29;20201;-70
2022/04/21 04:50:19;;;;;;;10.88;7.18;;;7.20;99.90;;;7.25;74.76;100837.03;4808226;29;20314;-69
2022/04/21 04:52:49;;;;;;;16.33;9.20;;;7.20;99.90;;;7.26;74.91;100834.13;4808827;29;20536;-68
2022/04/21 04:55:18;;;;;;;12.85;7.60;;;7.20;99.90;;;7.17;75.06;100837.91;4807576;29;20201;-69
2022/04/21 04:57:47;;;;;;;15.32;9.73;;;7.20;99.90;;;7.24;75.04;100838.88;4806963;29;20278;-69
2022/04/21 05:00:16;;;;;;;8.52;7.47;;;7.20;99.90;;;7.15;75.40;100837.28;4808593;29;20177;-69
2022/04/21 05:02:45;;;;;;;16.05;9.05;;;7.20;99.90;;;7.22;75.47;100840.91;4822150;29;20254;-70
2022/04/21 05:05:19;;;;;;;17.83;8.15;;;7.20;99.90;;;7.28;75.28;100844.72;4808335;29;20190;-70
2022/04/21 05:07:49;;;;;;;17.88;8.25;;;7.20;99.90;;;7.27;75.28;100845.75;4807698;29;20181;-70
2022/04/21 05:10:19;;;;;;;14.25;8.43;;;7.20;99.90;;;7.35;74.81;100854.59;4808652;29;20186;-69
2022/04/21 05:12:48;;;;;;;10.73;7.82;;;7.30;99.90;;;7.31;75.26;100850.56;4808289;29;20584;-70
2022/04/21 05:15:17;;;;;;;9.70;7.05;;;7.30;99.90;;;7.31;75.28;100855.16;4808412;29;20228;-70
2022/04/21 05:17:47;;;;;;;12.63;7.25;;;7.30;99.90;;;7.29;75.17;100854.47;4807799;29;20189;-70
2022/04/21 05:20:27;;;;;;;13.70;6.93;;;7.30;99.90;;;7.46;74.65;100856.00;4807368;29;20268;-69
2022/04/21 05:23:07;;;;;;;15.80;7.45;;;7.40;99.90;;;7.45;74.83;100851.66;4807411;29;20209;-70
2022/04/21 05:25:37;;;;;;;14.35;8.88;;;7.40;99.90;;;7.36;74.93;100858.94;4807365;29;20608;-70
2022/04/21 05:28:09;;;;;;;12.55;7.40;;;7.30;99.90;;;7.40;74.80;100857.59;4808093;29;20273;-69
2022/04/21 05:30:58;;;;;;;12.45;7.35;;;7.40;99.90;;;7.43;74.94;100854.53;4807872;29;20720;-69
2022/04/21 05:33:30;;;;;;;13.07;8.52;;;7.40;99.90;;;7.51;74.62;100864.38;4807788;29;20213;-68
2022/04/21 05:36:01;;;;;;;12.80;7.68;;;7.50;99.90;;;7.40;74.86;100864.81;4808119;29;20620;-70
2022/04/21 05:38:33;;;;;;;10.18;7.38;;;7.40;99.90;;;7.33;75.72;100862.00;4808713;29;20276;-70
2022/04/21 05:41:03;;;;;;;12.57;7.75;;;7.40;99.90;;;7.52;75.08;100862.50;4806727;29;20193;-71
2022/04/21 05:43:40;;;;;;;18.10;7.95;;;7.50;99.90;;;7.51;74.73;100860.84;4806456;29;20190;-70
2022/04/21 05:46:11;;;;;;;11.98;8.15;;;7.50;99.90;;;7.70;74.01;100852.22;4806478;29;20189;-70
2022/04/21 05:48:43;;;;;;;13.07;7.70;;;7.60;99.90;;;7.48;74.90;100851.28;4806309;29;20190;-70
2022/04/21 05:51:13;;;;;;;15.88;8.65;;;7.50;99.90;;;7.57;74.58;100852.88;4806163;29;20381;-70
2022/04/21 05:53:50;;;;;;;21.73;7.93;;;7.60;99.90;;;7.72;74.30;100858.28;4806465;29;20247;-71
2022/04/21 05:56:19;;;;;;;17.02;8.23;;;7.60;99.90;;;7.68;74.17;100851.59;4806512;29;20260;-69
2022/04/21 05:58:48;;;;;;;17.67;6.75;;;7.60;99.90;;;7.78;74.24;100849.47;4806294;29;20200;-69
2022/04/21 06:04:05;;;;;;;9.25;7.18;;;7.80;99.90;;;7.91;73.37;100846.94;4767934;30;20327;-70
2022/04/21 06:06:34;;;;;;;9.18;7.40;;;7.90;99.90;;;7.83;73.61;100844.34;4754050;30;20689;-69
2022/04/21 06:09:05;;;;;;;19.77;7.88;;;7.80;99.90;;;7.70;73.78;100844.97;4751879;30;20188;-71
2022/04/21 06:11:35;;;;;;;8.10;7.22;;;7.80;99.90;;;7.65;73.91;100847.38;4751659;30;20245;-71
2022/04/21 06:14:03;;;;;;;13.38;7.05;;;7.70;99.90;;;7.73;73.52;100843.78;4751520;30;20218;-70
2022/04/21 06:16:32;;;;;;;8.55;7.55;;;7.70;99.90;;;7.75;73.46;100841.72;4751416;30;20569;-69
2022/04/21 06:19:01;;;;;;;11.68;7.53;;;7.70;99.90;;;7.87;73.57;100840.25;4751639;30;20267;-72
2022/04/21 06:21:31;;;;;;;10.05;6.95;;;7.80;99.90;;;7.91;73.13;100835.31;4751554;30;20219;-70
2022/04/21 06:24:00;;;;;;;10.88;6.55;;;7.80;99.90;;;7.93;72.86;100831.44;4751791;30;20192;-70
2022/04/21 06:26:30;;;;;;;16.85;7.72;;;7.90;99.90;;;8.00;72.81;100828.81;4750453;30;20249;-70
2022/04/21 06:29:02;;;;;;;15.20;8.85;;;7.90;99.90;;;7.99;72.91;100830.66;4751309;30;20223;-69
2022/04/21 06:31:30;;;;;;;25.70;9.32;;;7.90;99.90;;;7.91;72.83;100824.56;4751275;30;20187;-70
2022/04/21 06:33:59;;;;;;;12.45;7.70;;;7.90;99.90;;;7.98;72.84;100829.03;4751165;30;20340;-71
2022/04/21 06:36:28;;;;;;;12.18;7.65;;;8.00;99.90;;;8.41;71.60;100823.78;4751612;30;20519;-70
2022/04/21 06:38:57;;;;;;;13.60;8.55;;;8.20;99.90;;;8.39;71.07;100821.25;4751379;30;20188;-69
2022/04/21 06:41:26;;;;;;;13.10;7.15;;;8.20;99.90;;;8.44;70.94;100815.28;4751509;30;20226;-70
2022/04/21 06:49:28;;;;;;;13.07;7.97;;;8.60;99.90;;;8.81;69.98;100825.84;4760569;30;20211;-72
2022/04/21 06:51:57;;;;;;;16.60;7.20;;;8.60;99.90;;;8.77;70.17;100827.28;4763420;30;20245;-73
2022/04/21 06:54:26;;;;;;;13.48;7.35;;;8.70;99.90;;;8.83;69.83;100831.06;4769890;30;20282;-73
2022/04/21 06:56:54;;;;;;;9.18;7.20;;;8.70;99.90;;;8.97;69.47;100833.72;4768841;30;20196;-72
2022/04/21 06:59:24;;;;;;;20.48;8.07;;;8.80;99.90;;;9.07;68.82;100844.19;4763648;30;20245;-68
2022/04/21 07:01:53;;;;;;;16.67;7.15;;;8.90;99.90;;;8.99;68.90;100845.16;4762052;30;20219;-72
2022/04/21 07:04:22;;;;;;;12.70;8.05;;;8.90;99.90;;;9.01;68.92;100845.78;4759128;30;20217;-71
2022/04/21 07:06:51;;;;;;;12.07;8.43;;;9.00;99.90;;;8.83;69.46;100853.50;4759334;30;20642;-70
2022/04/21 07:09:19;;;;;;;7.93;6.38;;;8.80;99.90;;;8.89;69.46;100852.75;4760515;30;20285;-70
2022/04/21 07:11:48;;;;;;;13.27;7.78;;;8.80;99.90;;;8.72;69.64;100851.28;4760831;30;20219;-69
2022/04/21 07:14:17;;;;;;;12.57;6.85;;;8.70;99.90;;;8.79;69.52;100849.53;4757224;30;20235;-70
2022/04/21 07:16:47;;;;;;;13.63;8.15;;;8.70;99.90;;;8.90;69.41;100849.03;4754599;30;20199;-70
2022/04/21 07:19:16;;;;;;;9.95;6.88;;;8.80;99.90;;;9.09;69.16;100850.22;4754232;30;20652;-71
2022/04/21 07:21:44;;;;;;;13.55;7.57;;;8.90;99.90;;;9.09;68.97;100853.78;4754310;30;20763;-70
2022/04/21 07:24:13;;;;;;;8.77;7.72;;;9.00;99.90;;;9.14;68.39;100855.88;4754372;30;20184;-72
2022/04/21 07:26:42;;;;;;;9.98;7.35;;;9.10;99.90;;;9.28;68.02;100856.84;4754749;30;20203;-69
2022/04/21 07:29:10;;;;;;;13.88;7.25;;;9.10;99.90;;;8.88;69.30;100859.16;4754897;30;20642;-70
2022/04/21 07:31:40;;;;;;;15.32;6.85;;;8.90;99.90;;;9.16;68.77;100864.63;4754534;30;20180;-70
2022/04/21 07:34:10;;;;;;;8.25;6.40;;;9.00;99.90;;;9.38;67.49;100858.19;4754033;30;20737;-70
2022/04/21 07:36:40;;;;;;;13.18;6.72;;;9.20;99.90;;;9.51;67.58;100868.25;4754368;30;20211;-71
2022/04/21 07:39:08;;;;;;;17.38;7.50;;;9.30;99.90;;;9.54;67.19;100859.75;4754183;30;20192;-71
2022/04/21 07:41:37;;;;;;;12.75;8.50;;;9.40;99.90;;;9.46;67.80;100862.59;4754420;30;20186;-70
2022/04/21 07:44:06;;;;;;;9.93;6.78;;;9.40;99.90;;;9.68;67.21;100866.94;4754432;30;20740;-72
2022/04/21 07:46:36;;;;;;;12.00;6.75;;;9.50;99.90;;;9.40;68.31;100868.78;4754205;30;20208;-71
2022/04/21 07:53:12;;;;;;;21.58;9.07;;;9.40;99.90;;;9.86;66.96;100869.13;4753223;30;20215;-71
2022/04/21 07:54:40;;;;;;;17.20;7.83;;;9.60;99.90;;;9.98;66.47;100865.66;4752221;30;20275;-69
2022/04/21 07:57:08;;;;;;;11.85;6.95;;;9.70;99.90;;;10.06;65.99;100867.38;4753573;30;20418;-70
2022/04/21 07:59:37;;;;;;;9.70;6.70;;;9.90;99.60;;;9.95;66.16;100867.94;4752438;30;20270;-72
2022/04/21 08:02:08;;;;;;;9.70;6.32;;;9.90;98.80;;;9.89;66.30;100876.84;4752943;30;20643;-70
2022/04/21 08:04:37;;;;;;;13.13;7.32;;;9.90;98.90;;;9.80;66.60;100878.84;4753271;30;20275;-69
2022/04/21 08:07:07;;;;;;;14.50;7.75;;;9.80;99.20;;;9.81;67.12;100875.13;4751868;30;20211;-71
2022/04/21 08:09:36;;;;;;;9.50;5.88;;;9.80;99.90;;;9.85;66.82;100876.41;4753130;30;20191;-71
2022/04/21 08:12:07;;;;;;;10.93;7.90;;;9.80;99.90;;;9.98;66.51;100879.19;4752840;30;20251;-70
2022/04/21 08:14:36;;;;;;;12.75;7.45;;;9.90;99.90;;;9.88;66.90;100870.59;4753308;30;20302;-71
2022/04/21 08:17:05;;;;;;;18.08;7.82;;;9.80;99.90;;;9.94;67.01;100875.22;4752738;30;20256;-71
2022/04/21 08:19:34;;;;;;;13.95;10.40;;;9.90;99.90;;;9.98;66.71;100879.19;4753095;30;20682;-70
2022/04/21 08:22:04;;;;;;;12.48;8.32;;;9.90;99.90;;;9.98;66.71;100881.88;4752803;30;20243;-71
2022/04/21 08:33:19;;;;;;;34.50;14.57;;;10.10;99.90;;;10.08;68.22;100886.09;4752613;30;20452;-71
2022/04/21 08:35:49;;;;;;;13.02;9.27;;;10.10;99.90;;;9.97;68.98;100891.00;4752818;30;20401;-70
2022/04/21 08:38:19;;;;;;;27.20;17.92;;;10.00;99.90;;;10.06;69.32;100893.59;4753319;30;20745;-71
2022/04/21 08:40:54;;;;;;;18.55;14.57;;;10.00;99.90;;;10.28;69.59;100892.47;4753247;30;20264;-71
2022/04/21 08:43:25;;;;;;;12.27;9.25;;;10.10;99.90;;;10.40;68.87;100888.19;4752655;30;20231;-71
2022/04/21 08:45:54;;;;;;;16.00;13.43;;;10.20;99.90;;;10.40;68.78;100885.47;4753227;30;20232;-73
2022/04/21 08:48:26;;;;;;;31.57;24.60;;;10.20;99.90;;;10.23;70.25;100884.13;4753356;30;20191;-71
2022/04/21 08:50:54;;;;;;;13.27;10.20;;;10.20;99.90;;;10.46;69.64;100890.06;4753291;30;20470;-69
2022/04/21 08:53:25;;;;;;;26.73;15.63;;;10.30;99.90;;;10.45;69.62;100888.41;4753306;30;20444;-70
2022/04/21 08:55:55;;;;;;;12.18;9.48;;;10.40;99.90;;;10.42;69.85;100884.22;4753058;30;20432;-71
2022/04/21 08:58:24;;;;;;;24.23;21.13;;;10.40;99.90;;;10.50;69.68;100885.94;4752499;30;20680;-70
2022/04/21 09:00:54;;;;;;;17.77;14.85;;;10.40;99.90;;;10.70;69.38;100892.25;4752455;30;20267;-71
2022/04/21 09:03:23;;;;;;;20.30;15.75;;;10.50;99.90;;;10.83;69.14;100884.19;4752261;30;20736;-71
2022/04/21 09:05:52;;;;;;;11.40;10.18;;;10.60;99.90;;;11.03;68.51;100886.09;4752195;30;20553;-72
2022/04/21 09:08:23;;;;;;;16.00;12.75;;;10.80;99.90;;;11.20;68.68;100879.25;4752452;30;20204;-72
2022/04/21 09:11:08;;;;;;;12.03;8.73;;;10.90;99.90;;;10.98;68.54;100881.31;4752118;30;20175;-72
2022/04/21 09:13:40;;;;;;;17.40;9.80;;;10.90;99.90;;;11.29;67.42;100878.84;4752094;30;20550;-72
2022/04/21 09:16:10;;;;;;;14.77;10.83;;;11.10;99.90;;;11.38;67.08;100884.88;4752712;30;20399;-71
2022/04/21 09:18:42;;;;;;;18.23;13.20;;;11.10;99.90;;;11.37;67.39;100888.66;4751894;30;20438;-71
2022/04/21 09:21:14;;;;;;;12.40;8.37;;;11.20;99.90;;;11.18;67.73;100882.16;4751968;30;20528;-71
2022/04/21 09:23:44;;;;;;;21.77;10.27;;;11.10;99.90;;;11.31;67.49;100886.78;4751624;30;20456;-71
2022/04/21 09:26:17;;;;;;;12.07;8.10;;;11.10;99.90;;;11.44;67.03;100877.81;4751950;30;20454;-73
2022/04/21 09:28:55;;;;;;;11.80;9.73;;;11.20;99.90;;;11.66;66.12;100887.41;4751652;30;20842;-70
2022/04/21 09:31:27;;;;;;;11.60;10.50;;;11.30;99.90;;;11.62;66.13;100881.53;4751617;30;20491;-67
2022/04/21 09:33:57;;;;;;;17.50;10.43;;;11.40;99.90;;;11.98;65.06;100886.56;4751774;30;20511;-70
2022/04/21 09:36:25;;;;;;;12.97;7.97;;;11.60;98.60;;;12.14;64.22;100888.00;4751413;30;20833;-70
2022/04/21 09:39:03;;;;;;;11.83;8.03;;;11.80;94.30;;;12.38;63.20;100881.88;4751447;30;20454;-71
2022/04/21 09:41:33;;;;;;;16.80;9.23;;;12.00;91.80;;;12.58;61.66;100882.63;4751346;30;20816;-70
2022/04/21 09:47:07;;;;;;;13.17;7.43;;;12.30;70.30;;;12.60;61.01;100896.81;4749861;30;20536;-71
2022/04/21 09:49:38;;;;;;;12.00;8.87;;;12.40;67.10;;;12.43;61.57;100892.91;4751474;30;20416;-71
2022/04/21 09:52:07;;;;;;;9.47;8.33;;;12.40;62.10;;;12.06;62.32;100890.91;4751777;30;20428;-72
2022/04/21 09:54:37;;;;;;;12.90;8.07;;;12.10;66.30;;;12.06;62.75;100902.59;4751351;30;20444;-71
2022/04/21 09:57:09;;;;;;;13.67;9.60;;;12.00;70.80;;;12.07;62.68;100901.56;4751545;30;20420;-72
2022/04/21 09:59:40;;;;;;;9.90;8.90;;;11.90;73.80;;;12.03;62.86;100904.91;4751340;30;20404;-71
2022/04/21 10:02:11;;;;;;;12.90;10.30;;;11.90;76.30;;;11.96;63.21;100901.34;4751160;30;20527;-72
2022/04/21 10:04:48;;;;;;;13.10;11.67;;;11.90;76.50;;;11.76;63.68;100899.50;4751672;30;20460;-71
2022/04/21 10:07:19;;;;;;;12.13;10.83;;;11.80;78.70;;;11.96;63.37;100904.91;4749979;30;20428;-71
2022/04/21 10:09:50;;;;;;;14.60;9.57;;;11.90;79.50;;;12.25;62.57;100897.38;4751071;30;20436;-71
2022/04/21 10:12:21;;;;;;;13.77;8.80;;;12.00;80.30;;;12.28;61.99;100903.19;4751014;30;20462;-71
2022/04/21 10:14:51;;;;;;;14.30;10.57;;;12.10;72.80;;;12.11;62.48;100907.38;4751353;30;20546;-70
2022/04/21 10:17:20;;;;;;;11.10;9.97;;;12.10;70.90;;;11.90;63.13;100910.34;4751336;30;20423;-71
2022/04/21 10:19:51;;;;;;;12.20;10.53;;;12.00;72.60;;;11.98;63.16;100902.81;4751385;30;20417;-71
2022/04/21 10:22:28;;;;;;;12.87;10.73;;;11.90;77.90;;;11.96;63.10;100895.94;4753472;30;20953;-70
2022/04/21 10:24:58;;;;;;;15.13;11.60;;;11.90;76.90;;;12.13;62.44;100906.16;4754918;30;20440;-71
2022/04/21 10:27:40;;;;;;;16.77;10.37;;;11.90;74.60;;;12.28;61.88;100903.19;4754817;30;20444;-71
2022/04/21 10:30:15;;;;;;;27.13;11.30;;;12.10;70.40;;;12.57;61.00;100897.25;4755388;30;20484;-71
2022/04/21 10:32:50;;;;;;;16.10;10.47;;;12.20;68.70;;;12.61;61.13;100906.63;4755048;30;20511;-70
2022/04/21 10:35:21;;;;;;;13.60;11.40;;;12.40;64.10;;;12.51;61.25;100911.66;4755622;30;20446;-71
2022/04/21 10:38:26;;;;;;;12.57;11.27;;;12.30;61.40;;;12.48;61.12;100903.97;4756377;30;20956;-70
2022/04/21 10:41:03;;;;;;;14.53;10.77;;;12.40;56.90;;;12.71;60.77;100899.88;4755048;30;20986;-72
2022/04/21 10:44:04;;;;;;;14.10;10.00;;;12.50;58.60;;;12.97;59.88;100902.50;4754685;30;20443;-70
2022/04/21 10:46:33;;;;;;;14.77;11.80;;;12.70;55.90;;;12.69;60.70;100902.81;4754699;30;20800;-71
2022/04/21 10:49:02;;;;;;;17.57;11.87;;;12.60;53.40;;;12.67;60.77;100896.78;4754485;30;20796;-72
2022/04/21 10:58:51;;;;;;;14.37;12.90;;;12.90;50.20;;;13.10;59.79;100894.25;4753367;30;20503;-71
2022/04/21 11:01:34;;;;;;;13.50;12.10;;;12.80;51.70;;;13.45;59.43;100895.50;4752238;30;20878;-71
2022/04/21 11:04:28;;;;;;;15.67;11.63;;;12.90;52.10;;;13.57;58.37;100894.75;4754473;30;20898;-69
2022/04/21 11:07:13;;;;;;;13.47;12.17;;;13.30;45.50;;;13.61;58.53;100888.66;4749881;30;20460;-72
2022/04/21 11:09:50;;;;;;;14.17;11.17;;;13.40;42.00;;;13.83;57.76;100897.28;4755919;30;20420;-70
2022/04/21 11:12:50;;;;;;;13.97;11.43;;;13.50;40.80;;;13.87;57.75;100895.75;4757223;30;20494;-71
2022/04/21 11:15:36;;;;;;;15.67;14.13;;;13.50;38.90;;;13.92;57.71;100890.47;4754072;30;20480;-70
2022/04/21 11:18:11;;;;;;;13.70;12.50;;;13.50;38.40;;;14.24;57.06;100892.03;4754284;30;20415;-69
2022/04/21 11:20:42;;;;;;;15.50;11.23;;;13.80;36.30;;;14.27;56.73;100882.59;4755358;30;20415;-71
2022/04/21 11:23:22;;;;;;;12.43;11.00;;;14.00;33.30;;;14.00;57.08;100887.47;4758308;30;20428;-71